createdAt,value
2022-09-02T00:00:35.729Z,5.60
2022-09-02T00:01:35.732Z,6.10
2022-09-02T00:02:35.806Z,7.00
2022-09-02T00:03:35.765Z,6.60
2022-09-02T00:04:35.691Z,7.10
2022-09-02T00:05:35.689Z,5.70
2022-09-02T00:06:35.685Z,5.70
2022-09-02T00:07:35.664Z,6.30
2022-09-02T00:08:35.633Z,5.90
2022-09-02T00:09:35.628Z,5.20
2022-09-02T00:10:35.625Z,5.10
2022-09-02T00:11:35.624Z,4.50
2022-09-02T00:12:35.590Z,4.80
2022-09-02T00:13:35.585Z,6.00
2022-09-02T00:14:35.595Z,6.20
2022-09-02T00:15:35.564Z,7.30
2022-09-02T00:16:35.645Z,5.70
2022-09-02T00:17:35.543Z,4.80
2022-09-02T00:18:35.544Z,5.70
2022-09-02T00:19:35.522Z,8.00
2022-09-02T00:20:35.521Z,7.30
2022-09-02T00:21:35.528Z,6.70
2022-09-02T00:22:35.485Z,6.90
2022-09-02T00:23:35.486Z,6.30
2022-09-02T00:24:35.478Z,6.70
2022-09-02T00:25:35.482Z,6.40
2022-09-02T00:26:35.482Z,7.90
2022-09-02T00:27:35.441Z,5.90
2022-09-02T00:28:35.431Z,4.70
2022-09-02T00:29:35.428Z,6.90
2022-09-02T00:30:35.430Z,10.60
2022-09-02T00:31:35.483Z,10.80
2022-09-02T00:32:35.382Z,8.00
2022-09-02T00:33:35.386Z,6.20
2022-09-02T00:34:35.378Z,8.00
2022-09-02T00:35:35.379Z,7.60
2022-09-02T00:36:35.337Z,7.00
2022-09-02T00:37:35.339Z,6.60
2022-09-02T00:38:35.327Z,7.00
2022-09-02T00:39:35.333Z,5.60
2022-09-02T00:40:35.426Z,7.20
2022-09-02T00:41:35.292Z,10.70
2022-09-02T00:42:35.288Z,7.60
2022-09-02T00:43:35.280Z,5.40
2022-09-02T00:44:35.264Z,6.30
2022-09-02T00:45:35.293Z,5.60
2022-09-02T00:46:35.235Z,7.00
2022-09-02T00:47:35.234Z,6.20
2022-09-02T00:48:35.213Z,7.00
2022-09-02T00:49:35.214Z,6.80
2022-09-02T00:50:35.230Z,6.70
2022-09-02T00:51:35.196Z,7.00
2022-09-02T00:52:35.180Z,6.30
2022-09-02T00:53:35.177Z,7.00
2022-09-02T00:54:35.149Z,6.40
2022-09-02T00:55:35.167Z,9.50
2022-09-02T00:56:35.140Z,7.20
2022-09-02T00:57:35.137Z,7.30
2022-09-02T00:58:35.108Z,6.70
2022-09-02T00:59:35.110Z,7.70
2022-09-02T01:00:35.118Z,7.00
2022-09-02T01:01:35.302Z,6.40
2022-09-02T01:02:35.081Z,7.60
2022-09-02T01:03:35.078Z,6.70
2022-09-02T01:04:35.043Z,6.50
2022-09-02T01:05:35.072Z,6.90
2022-09-02T01:06:35.023Z,6.90
2022-09-02T01:07:35.031Z,5.40
2022-09-02T01:08:35.002Z,6.50
2022-09-02T01:09:35.006Z,6.80
2022-09-02T01:10:35.131Z,5.60
2022-09-02T01:11:35.002Z,7.50
2022-09-02T01:12:34.980Z,6.90
2022-09-02T01:13:34.952Z,5.50
2022-09-02T01:14:34.938Z,6.20
2022-09-02T01:15:34.946Z,6.10
2022-09-02T01:16:34.995Z,5.70
2022-09-02T01:17:34.927Z,5.60
2022-09-02T01:18:34.896Z,6.30
2022-09-02T01:19:34.889Z,8.20
2022-09-02T01:20:34.887Z,6.70
2022-09-02T01:21:34.899Z,8.40
2022-09-02T01:22:34.857Z,8.00
2022-09-02T01:23:35.043Z,5.90
2022-09-02T01:24:34.838Z,6.20
2022-09-02T01:25:34.838Z,6.60
2022-09-02T01:26:34.846Z,7.40
2022-09-02T01:27:34.809Z,6.10
2022-09-02T01:28:34.796Z,6.60
2022-09-02T01:29:34.786Z,5.60
2022-09-02T01:30:34.774Z,7.30
2022-09-02T01:31:34.832Z,4.80
2022-09-02T01:32:34.761Z,5.40
2022-09-02T01:33:34.744Z,6.10
2022-09-02T01:34:34.734Z,8.30
2022-09-02T01:35:34.724Z,7.20
2022-09-02T01:36:34.730Z,6.60
2022-09-02T01:37:34.718Z,6.40
2022-09-02T01:38:34.696Z,6.30
2022-09-02T01:39:34.700Z,5.50
2022-09-02T01:40:34.711Z,7.90
2022-09-02T01:41:34.693Z,5.40
2022-09-02T01:42:34.665Z,5.20
2022-09-02T01:43:34.658Z,7.90
2022-09-02T01:44:34.625Z,6.10
2022-09-02T01:45:34.631Z,7.90
2022-09-02T01:46:34.663Z,6.80
2022-09-02T01:47:34.610Z,6.30
2022-09-02T01:48:34.582Z,6.50
2022-09-02T01:49:35.325Z,7.30
2022-09-02T01:50:34.574Z,5.90
2022-09-02T01:51:34.579Z,6.80
2022-09-02T01:52:34.553Z,5.60
2022-09-02T01:53:34.545Z,9.10
2022-09-02T01:54:34.530Z,6.20
2022-09-02T01:55:34.514Z,4.60
2022-09-02T01:56:34.543Z,5.90
2022-09-02T01:57:34.492Z,6.00
2022-09-02T01:58:34.477Z,6.60
2022-09-02T01:59:34.513Z,7.60
2022-09-02T02:00:34.506Z,6.70
2022-09-02T02:01:34.506Z,7.50
2022-09-02T02:02:34.483Z,6.50
2022-09-02T02:03:34.431Z,6.90
2022-09-02T02:04:34.570Z,6.90
2022-09-02T02:05:34.411Z,8.90
2022-09-02T02:06:34.416Z,7.10
2022-09-02T02:07:34.388Z,6.80
2022-09-02T02:08:34.389Z,6.30
2022-09-02T02:09:34.388Z,6.90
2022-09-02T02:10:34.366Z,6.90
2022-09-02T02:11:34.370Z,6.30
2022-09-02T02:12:34.332Z,7.40
2022-09-02T02:13:34.335Z,8.40
2022-09-02T02:14:34.324Z,6.50
2022-09-02T02:16:03.990Z,6.30
2022-09-02T02:17:04.910Z,6.00
2022-09-02T02:18:04.890Z,7.50
2022-09-02T02:19:04.875Z,7.30
2022-09-02T02:20:04.884Z,6.30
2022-09-02T02:21:04.883Z,7.60
2022-09-02T02:22:04.858Z,7.70
2022-09-02T02:23:04.849Z,7.50
2022-09-02T02:24:04.829Z,6.70
2022-09-02T02:25:04.825Z,8.40
2022-09-02T02:26:04.838Z,6.10
2022-09-02T02:27:04.792Z,6.40
2022-09-02T02:28:04.799Z,8.10
2022-09-02T02:29:04.785Z,7.30
2022-09-02T02:30:04.765Z,7.90
2022-09-02T02:31:04.844Z,6.70
2022-09-02T02:32:04.750Z,6.00
2022-09-02T02:33:04.731Z,6.50
2022-09-02T02:34:04.763Z,8.10
2022-09-02T02:35:04.722Z,9.40
2022-09-02T02:36:04.734Z,7.50
2022-09-02T02:37:04.698Z,6.70
2022-09-02T02:38:04.684Z,7.40
2022-09-02T02:39:04.685Z,8.30
2022-09-02T02:40:04.707Z,8.70
2022-09-02T02:41:04.668Z,9.00
2022-09-02T02:42:04.650Z,8.00
2022-09-02T02:43:04.634Z,6.70
2022-09-02T02:44:04.621Z,6.70
2022-09-02T02:45:04.603Z,7.60
2022-09-02T02:46:04.617Z,7.60
2022-09-02T02:47:04.583Z,7.60
2022-09-02T02:48:04.593Z,6.60
2022-09-02T02:49:04.572Z,10.50
2022-09-02T02:50:04.568Z,9.90
2022-09-02T02:51:04.571Z,8.50
2022-09-02T02:52:04.537Z,8.30
2022-09-02T02:53:04.535Z,5.50
2022-09-02T02:54:04.524Z,7.90
2022-09-02T02:55:04.502Z,7.00
2022-09-02T02:56:04.530Z,6.40
2022-09-02T02:57:04.501Z,8.70
2022-09-02T02:58:04.483Z,5.80
2022-09-02T02:59:04.467Z,6.90
2022-09-02T03:00:04.454Z,6.40
2022-09-02T03:01:04.466Z,5.70
2022-09-02T03:02:04.575Z,6.20
2022-09-02T03:03:04.515Z,8.30
2022-09-02T03:04:04.426Z,6.20
2022-09-02T03:05:04.396Z,6.30
2022-09-02T03:06:04.419Z,7.00
2022-09-02T03:07:04.388Z,6.30
2022-09-02T03:08:04.381Z,6.30
2022-09-02T03:09:04.355Z,9.10
2022-09-02T03:10:04.348Z,6.70
2022-09-02T03:11:04.358Z,7.00
2022-09-02T03:12:04.329Z,4.70
2022-09-02T03:13:04.313Z,7.30
2022-09-02T03:14:04.307Z,7.60
2022-09-02T03:15:04.291Z,5.60
2022-09-02T03:16:04.405Z,6.60
2022-09-02T03:17:04.270Z,6.80
2022-09-02T03:18:04.279Z,5.30
2022-09-02T03:19:04.249Z,8.60
2022-09-02T03:20:04.244Z,5.50
2022-09-02T03:21:04.246Z,5.30
2022-09-02T03:22:04.232Z,5.10
2022-09-02T03:23:04.209Z,6.80
2022-09-02T03:24:04.201Z,6.70
2022-09-02T03:25:04.196Z,6.10
2022-09-02T03:26:04.216Z,8.60
2022-09-02T03:27:04.178Z,6.20
2022-09-02T03:28:04.161Z,8.00
2022-09-02T03:29:04.146Z,6.40
2022-09-02T03:30:04.162Z,5.40
2022-09-02T03:31:04.326Z,7.00
2022-09-02T03:32:04.118Z,6.30
2022-09-02T03:33:04.522Z,9.10
2022-09-02T03:34:04.107Z,5.90
2022-09-02T03:35:04.093Z,6.60
2022-09-02T03:36:04.104Z,5.80
2022-09-02T03:37:04.060Z,7.10
2022-09-02T03:38:04.068Z,7.40
2022-09-02T03:39:04.038Z,6.20
2022-09-02T03:40:04.110Z,7.30
2022-09-02T03:41:04.051Z,6.90
2022-09-02T03:42:05.619Z,7.20
2022-09-02T03:43:04.000Z,7.70
2022-09-02T03:44:03.994Z,7.00
2022-09-02T03:45:04.080Z,7.50
2022-09-02T03:46:04.050Z,8.70
2022-09-02T03:47:03.954Z,6.40
2022-09-02T03:48:03.951Z,6.80
2022-09-02T03:49:03.963Z,6.20
2022-09-02T03:50:03.964Z,6.90
2022-09-02T03:51:03.955Z,6.90
2022-09-02T03:52:03.922Z,5.70
2022-09-02T03:53:03.891Z,8.30
2022-09-02T03:54:03.891Z,6.30
2022-09-02T03:55:03.884Z,8.50
2022-09-02T03:56:03.903Z,6.90
2022-09-02T03:57:03.852Z,5.90
2022-09-02T03:58:08.412Z,8.20
2022-09-02T03:59:03.857Z,5.60
2022-09-02T04:00:03.842Z,5.70
2022-09-02T04:01:03.834Z,8.20
2022-09-02T04:02:03.980Z,5.90
2022-09-02T04:03:03.907Z,6.60
2022-09-02T04:04:03.800Z,5.30
2022-09-02T04:05:03.770Z,5.60
2022-09-02T04:06:03.791Z,5.90
2022-09-02T04:07:03.766Z,4.90
2022-09-02T04:08:03.761Z,8.10
2022-09-02T04:09:03.745Z,8.90
2022-09-02T04:10:03.739Z,6.70
2022-09-02T04:11:03.737Z,5.40
2022-09-02T04:12:03.705Z,6.00
2022-09-02T04:13:03.709Z,5.40
2022-09-02T04:14:03.694Z,4.70
2022-09-02T04:15:03.684Z,5.90
2022-09-02T04:16:03.722Z,6.20
2022-09-02T04:17:03.657Z,4.90
2022-09-02T04:18:03.660Z,5.40
2022-09-02T04:19:03.626Z,7.50
2022-09-02T04:20:03.623Z,7.60
2022-09-02T04:21:03.638Z,6.00
2022-09-02T04:22:03.607Z,6.40
2022-09-02T04:23:03.590Z,7.60
2022-09-02T04:24:03.590Z,7.20
2022-09-02T04:25:03.564Z,6.40
2022-09-02T04:26:03.577Z,6.30
2022-09-02T04:27:04.535Z,4.90
2022-09-02T04:28:03.552Z,5.80
2022-09-02T04:29:03.533Z,6.30
2022-09-02T04:30:03.514Z,6.50
2022-09-02T04:31:03.567Z,6.50
2022-09-02T04:32:03.507Z,8.50
2022-09-02T04:33:03.479Z,7.10
2022-09-02T04:34:03.476Z,6.60
2022-09-02T04:35:03.468Z,5.90
2022-09-02T04:36:03.498Z,6.80
2022-09-02T04:37:03.457Z,6.90
2022-09-02T04:38:03.452Z,8.20
2022-09-02T04:39:03.422Z,7.40
2022-09-02T04:40:03.409Z,6.50
2022-09-02T04:41:03.428Z,6.40
2022-09-02T04:42:03.401Z,6.20
2022-09-02T04:43:03.375Z,6.40
2022-09-02T04:44:03.382Z,6.90
2022-09-02T04:45:03.365Z,7.80
2022-09-02T04:46:03.457Z,6.40
2022-09-02T04:47:03.332Z,5.90
2022-09-02T04:48:03.337Z,6.10
2022-09-02T04:49:03.319Z,6.20
2022-09-02T04:50:03.320Z,5.20
2022-09-02T04:51:03.323Z,6.70
2022-09-02T04:52:03.283Z,7.10
2022-09-02T04:53:03.283Z,6.20
2022-09-02T04:54:03.269Z,5.50
2022-09-02T04:55:03.247Z,5.20
2022-09-02T04:56:03.271Z,6.20
2022-09-02T04:57:03.240Z,6.20
2022-09-02T04:58:03.223Z,5.70
2022-09-02T04:59:03.219Z,5.90
2022-09-02T05:00:03.209Z,7.50
2022-09-02T05:01:03.220Z,5.20
2022-09-02T05:02:03.244Z,4.90
2022-09-02T05:03:03.174Z,5.60
2022-09-02T05:04:03.168Z,5.20
2022-09-02T05:05:03.158Z,6.30
2022-09-02T05:06:03.157Z,5.60
2022-09-02T05:07:03.134Z,4.90
2022-09-02T05:08:03.142Z,5.40
2022-09-02T05:09:03.104Z,4.80
2022-09-02T05:10:03.114Z,7.10
2022-09-02T05:11:03.099Z,6.50
2022-09-02T05:12:03.088Z,4.60
2022-09-02T05:13:03.074Z,4.60
2022-09-02T05:14:03.079Z,5.40
2022-09-02T05:15:03.040Z,7.10
2022-09-02T05:16:03.138Z,5.30
2022-09-02T05:17:07.485Z,6.20
2022-09-02T05:18:03.748Z,6.60
2022-09-02T05:19:03.003Z,5.00
2022-09-02T05:20:02.993Z,5.10
2022-09-02T05:21:03.007Z,5.10
2022-09-02T05:22:02.984Z,5.00
2022-09-02T05:23:02.958Z,4.50
2022-09-02T05:24:02.965Z,6.80
2022-09-02T05:25:02.943Z,6.70
2022-09-02T05:26:02.949Z,5.80
2022-09-02T05:27:02.935Z,7.60
2022-09-02T05:28:02.909Z,5.20
2022-09-02T05:29:02.896Z,5.80
2022-09-02T05:30:02.889Z,6.90
2022-09-02T05:31:02.952Z,7.00
2022-09-02T05:32:02.878Z,5.40
2022-09-02T05:33:02.860Z,7.10
2022-09-02T05:34:02.859Z,6.40
2022-09-02T05:35:02.842Z,6.90
2022-09-02T05:36:02.840Z,6.90
2022-09-02T05:37:02.809Z,6.00
2022-09-02T05:38:02.808Z,6.70
2022-09-02T05:39:02.824Z,6.20
2022-09-02T05:40:02.804Z,5.80
2022-09-02T05:41:02.795Z,7.00
2022-09-02T05:42:02.787Z,5.70
2022-09-02T05:43:02.758Z,6.40
2022-09-02T05:44:03.646Z,6.50
2022-09-02T05:45:02.749Z,7.20
2022-09-02T05:46:02.793Z,5.50
2022-09-02T05:47:02.958Z,7.00
2022-09-02T05:48:02.721Z,6.40
2022-09-02T05:49:02.698Z,5.70
2022-09-02T05:50:03.160Z,6.60
2022-09-02T05:51:02.715Z,6.80
2022-09-02T05:52:02.660Z,6.60
2022-09-02T05:53:02.653Z,8.40
2022-09-02T05:54:02.647Z,4.70
2022-09-02T05:55:02.640Z,7.50
2022-09-02T05:56:02.624Z,3.80
2022-09-02T05:57:03.179Z,5.00
2022-09-02T05:58:02.604Z,7.70
2022-09-02T05:59:02.587Z,9.30
2022-09-02T06:00:02.585Z,6.90
2022-09-02T06:01:02.596Z,5.60
2022-09-02T06:02:02.619Z,5.10
2022-09-02T06:03:02.611Z,5.00
2022-09-02T06:04:02.543Z,5.60
2022-09-02T06:05:02.543Z,5.00
2022-09-02T06:06:06.588Z,5.40
2022-09-02T06:07:02.518Z,4.30
2022-09-02T06:08:02.501Z,5.10
2022-09-02T06:09:02.493Z,6.20
2022-09-02T06:10:02.470Z,7.00
2022-09-02T06:11:02.483Z,6.10
2022-09-02T06:12:02.470Z,7.30
2022-09-02T06:13:02.444Z,9.30
2022-09-02T06:14:02.440Z,4.40
2022-09-02T06:15:02.433Z,4.80
2022-09-02T06:16:02.520Z,6.50
2022-09-02T06:17:02.412Z,4.80
2022-09-02T06:18:02.394Z,6.30
2022-09-02T06:19:02.378Z,5.40
2022-09-02T06:20:02.362Z,4.80
2022-09-02T06:21:02.387Z,6.20
2022-09-02T06:22:02.341Z,6.80
2022-09-02T06:23:02.337Z,5.50
2022-09-02T06:24:02.333Z,4.40
2022-09-02T06:25:02.332Z,5.40
2022-09-02T06:26:02.334Z,4.40
2022-09-02T06:27:02.305Z,4.60
2022-09-02T06:28:06.891Z,4.80
2022-09-02T06:29:03.089Z,6.70
2022-09-02T06:30:02.259Z,3.30
2022-09-02T06:31:02.344Z,5.30
2022-09-02T06:32:02.249Z,4.80
2022-09-02T06:33:02.231Z,4.50
2022-09-02T06:34:02.233Z,5.00
2022-09-02T06:35:02.223Z,3.50
2022-09-02T06:36:02.225Z,4.20
2022-09-02T06:37:02.189Z,4.10
2022-09-02T06:38:02.498Z,4.60
2022-09-02T06:39:02.189Z,4.30
2022-09-02T06:40:02.174Z,6.90
2022-09-02T06:41:02.170Z,4.90
2022-09-02T06:42:02.152Z,4.70
2022-09-02T06:43:02.138Z,5.00
2022-09-02T06:44:02.111Z,3.80
2022-09-02T06:45:02.108Z,5.50
2022-09-02T06:46:02.382Z,6.40
2022-09-02T06:47:02.087Z,6.20
2022-09-02T06:48:02.082Z,5.00
2022-09-02T06:49:02.075Z,7.30
2022-09-02T06:50:02.049Z,5.20
2022-09-02T06:51:02.069Z,4.00
2022-09-02T06:52:02.026Z,5.30
2022-09-02T06:53:02.024Z,5.90
2022-09-02T06:54:03.783Z,5.20
2022-09-02T06:55:02.002Z,3.20
2022-09-02T06:56:02.014Z,4.40
2022-09-02T06:57:01.992Z,4.50
2022-09-02T06:58:01.974Z,4.00
2022-09-02T06:59:01.959Z,5.50
2022-09-02T07:00:02.705Z,3.90
2022-09-02T07:01:02.001Z,4.20
2022-09-02T07:02:02.122Z,5.80
2022-09-02T07:03:01.935Z,4.40
2022-09-02T07:04:01.923Z,6.30
2022-09-02T07:05:01.955Z,5.60
2022-09-02T07:06:05.779Z,6.50
2022-09-02T07:07:01.893Z,4.80
2022-09-02T07:08:01.871Z,4.20
2022-09-02T07:09:01.855Z,5.20
2022-09-02T07:10:01.851Z,5.80
2022-09-02T07:11:03.767Z,6.80
2022-09-02T07:12:04.614Z,4.60
2022-09-02T07:13:02.984Z,3.30
2022-09-02T07:14:03.211Z,4.90
2022-09-02T07:15:01.999Z,6.90
2022-09-02T07:16:01.838Z,6.50
2022-09-02T07:17:01.850Z,4.70
2022-09-02T07:18:01.768Z,5.40
2022-09-02T07:19:01.748Z,5.60
2022-09-02T07:20:01.738Z,4.40
2022-09-02T07:21:01.750Z,7.10
2022-09-02T07:22:03.499Z,3.90
2022-09-02T07:23:01.718Z,5.80
2022-09-02T07:24:01.705Z,5.10
2022-09-02T07:25:01.705Z,5.40
2022-09-02T07:26:01.913Z,4.60
2022-09-02T07:27:03.931Z,4.90
2022-09-02T07:28:01.660Z,3.60
2022-09-02T07:29:01.656Z,5.80
2022-09-02T07:30:01.715Z,4.70
2022-09-02T07:31:01.701Z,5.70
2022-09-02T07:32:01.638Z,5.10
2022-09-02T07:33:01.748Z,3.80
2022-09-02T07:34:01.591Z,4.80
2022-09-02T07:35:01.587Z,4.50
2022-09-02T07:36:01.583Z,3.00
2022-09-02T07:37:05.123Z,6.00
2022-09-02T07:38:01.557Z,6.40
2022-09-02T07:39:01.569Z,5.20
2022-09-02T07:40:01.549Z,4.30
2022-09-02T07:41:01.520Z,5.10
2022-09-02T07:42:01.530Z,3.50
2022-09-02T07:43:01.513Z,3.90
2022-09-02T07:44:01.505Z,3.20
2022-09-02T07:45:01.482Z,5.70
2022-09-02T07:46:01.540Z,5.30
2022-09-02T07:47:01.499Z,5.20
2022-09-02T07:48:01.453Z,5.30
2022-09-02T07:49:01.898Z,3.40
2022-09-02T07:50:19.626Z,5.50
2022-09-02T07:51:01.422Z,4.70
2022-09-02T07:52:01.429Z,3.90
2022-09-02T07:53:01.410Z,5.30
2022-09-02T07:54:01.400Z,4.30
2022-09-02T07:55:01.374Z,2.80
2022-09-02T07:56:01.364Z,3.30
2022-09-02T07:57:01.409Z,3.30
2022-09-02T07:58:01.353Z,3.80
2022-09-02T07:59:01.343Z,5.10
2022-09-02T08:00:01.318Z,6.60
2022-09-02T08:01:01.450Z,4.50
2022-09-02T08:02:01.388Z,6.10
2022-09-02T08:03:01.416Z,5.00
2022-09-02T08:04:04.110Z,2.80
2022-09-02T08:05:01.282Z,2.90
2022-09-02T08:06:01.265Z,2.60
2022-09-02T08:07:01.269Z,4.10
2022-09-02T08:08:01.236Z,4.20
2022-09-02T08:09:01.255Z,3.80
2022-09-02T08:10:01.229Z,2.80
2022-09-02T08:12:01.227Z,4.70
2022-09-02T08:13:01.198Z,5.40
2022-09-02T08:14:01.190Z,4.40
2022-09-02T08:15:01.181Z,1.90
2022-09-02T08:16:02.152Z,2.90
2022-09-02T08:17:01.293Z,3.30
2022-09-02T08:18:01.147Z,1.90
2022-09-02T08:19:01.127Z,3.80
2022-09-02T08:20:01.109Z,3.40
2022-09-02T08:21:01.116Z,2.80
2022-09-02T08:22:01.109Z,2.90
2022-09-02T08:23:11.126Z,3.60
2022-09-02T08:24:01.087Z,3.50
2022-09-02T08:25:01.064Z,3.00
2022-09-02T08:26:01.047Z,3.70
2022-09-02T08:27:01.073Z,2.60
2022-09-02T08:28:01.042Z,2.90
2022-09-02T08:29:01.031Z,3.00
2022-09-02T08:30:01.009Z,2.10
2022-09-02T08:31:01.013Z,4.30
2022-09-02T08:32:01.121Z,1.80
2022-09-02T08:33:00.985Z,1.80
2022-09-02T08:34:00.968Z,1.60
2022-09-02T08:35:00.970Z,1.50
2022-09-02T08:36:00.961Z,2.60
2022-09-02T08:37:00.964Z,1.70
2022-09-02T08:38:02.272Z,2.50
2022-09-02T08:39:00.918Z,1.90
2022-09-02T08:40:00.905Z,2.50
2022-09-02T08:41:00.906Z,2.20
2022-09-02T08:43:00.874Z,1.50
2022-09-02T08:44:00.861Z,2.50
2022-09-02T08:45:00.865Z,3.70
2022-09-02T08:46:00.929Z,2.20
2022-09-02T08:47:00.856Z,1.90
2022-09-02T08:48:00.835Z,1.90
2022-09-02T08:49:00.830Z,3.10
2022-09-02T08:50:00.814Z,2.70
2022-09-02T08:51:00.811Z,1.80
2022-09-02T08:52:01.279Z,2.20
2022-09-02T08:53:00.777Z,3.30
2022-09-02T08:54:00.757Z,2.20
2022-09-02T08:55:00.752Z,3.10
2022-09-02T08:56:00.746Z,0.90
2022-09-02T08:57:00.765Z,1.90
2022-09-02T08:58:00.765Z,1.80
2022-09-02T08:59:00.724Z,2.00
2022-09-02T09:00:00.715Z,2.00
2022-09-02T09:01:00.752Z,1.50
2022-09-02T09:02:01.015Z,2.70
2022-09-02T09:03:00.680Z,2.40
2022-09-02T09:04:00.665Z,2.10
2022-09-02T09:05:00.646Z,1.80
2022-09-02T09:06:00.633Z,1.90
2022-09-02T09:07:00.643Z,1.90
2022-09-02T09:08:00.620Z,1.40
2022-09-02T09:09:00.605Z,1.80
2022-09-02T09:10:00.598Z,2.80
2022-09-02T09:11:00.600Z,2.30
2022-09-02T09:12:00.585Z,2.60
2022-09-02T09:13:00.581Z,2.60
2022-09-02T09:14:00.561Z,2.30
2022-09-02T09:15:00.542Z,1.10
2022-09-02T09:16:00.598Z,1.90
2022-09-02T09:17:00.552Z,2.20
2022-09-02T09:18:00.516Z,2.60
2022-09-02T09:19:00.514Z,2.40
2022-09-02T09:20:00.489Z,1.40
2022-09-02T09:21:00.481Z,1.90
2022-09-02T09:22:00.514Z,2.30
2022-09-02T09:23:00.480Z,2.50
2022-09-02T09:24:00.449Z,2.90
2022-09-02T09:25:00.447Z,1.50
2022-09-02T09:26:00.432Z,2.40
2022-09-02T09:27:00.446Z,1.40
2022-09-02T09:28:00.401Z,2.60
2022-09-02T09:29:00.398Z,1.70
2022-09-02T09:30:00.380Z,3.20
2022-09-02T09:31:00.377Z,2.00
2022-09-02T09:32:00.472Z,2.70
2022-09-02T09:33:00.460Z,1.80
2022-09-02T09:34:00.354Z,1.90
2022-09-02T09:35:00.357Z,2.70
2022-09-02T09:36:00.328Z,2.50
2022-09-02T09:37:00.330Z,1.70
2022-09-02T09:38:00.314Z,2.50
2022-09-02T09:39:00.302Z,1.80
2022-09-02T09:40:00.288Z,3.00
2022-09-02T09:41:00.271Z,3.60
2022-09-02T09:42:00.280Z,1.60
2022-09-02T09:44:00.250Z,1.60
2022-09-02T09:45:00.247Z,2.90
2022-09-02T09:46:00.271Z,1.80
2022-09-02T09:47:00.237Z,2.30
2022-09-02T09:48:00.194Z,3.50
2022-09-02T09:49:00.203Z,1.60
2022-09-02T09:50:00.181Z,1.50
2022-09-02T09:51:00.189Z,2.30
2022-09-02T09:52:00.170Z,1.90
2022-09-02T09:53:00.167Z,1.40
2022-09-02T09:54:00.146Z,2.10
2022-09-02T09:55:00.141Z,1.30
2022-09-02T09:56:00.111Z,8.80
2022-09-02T09:57:00.137Z,1.70
2022-09-02T09:58:00.092Z,1.70
2022-09-02T09:59:00.100Z,3.40
2022-09-02T10:00:00.085Z,1.40
2022-09-02T10:01:00.114Z,1.70
2022-09-02T10:02:00.178Z,2.40
2022-09-02T10:03:00.055Z,3.00
2022-09-02T10:04:00.036Z,2.10
2022-09-02T10:05:00.022Z,2.40
2022-09-02T10:06:00.011Z,2.10
2022-09-02T10:07:00.025Z,1.20
2022-09-02T10:08:00.009Z,1.30
2022-09-02T10:08:59.989Z,2.50
2022-09-02T10:09:59.968Z,2.60
2022-09-02T10:10:59.964Z,2.60
2022-09-02T10:11:59.979Z,2.10
2022-09-02T10:12:59.937Z,2.40
2022-09-02T10:13:59.941Z,2.60
2022-09-02T10:14:59.917Z,3.10
2022-09-02T10:15:59.973Z,1.00
2022-09-02T10:16:59.935Z,2.60
2022-09-02T10:17:59.899Z,1.00
2022-09-02T10:18:59.869Z,2.40
2022-09-02T10:19:59.864Z,2.00
2022-09-02T10:21:16.180Z,2.10
2022-09-02T10:21:59.872Z,2.00
2022-09-02T10:23:00.724Z,2.00
2022-09-02T10:23:59.839Z,1.60
2022-09-02T10:24:59.817Z,3.30
2022-09-02T10:25:59.811Z,2.00
2022-09-02T10:26:59.813Z,2.10
2022-09-02T10:27:59.784Z,1.60
2022-09-02T10:29:03.413Z,1.30
2022-09-02T10:29:59.762Z,1.80
2022-09-02T10:30:59.772Z,2.60
2022-09-02T10:31:59.769Z,3.50
2022-09-02T10:32:59.726Z,1.50
2022-09-02T10:33:59.728Z,1.70
2022-09-02T10:34:59.713Z,2.80
2022-09-02T10:35:59.698Z,1.70
2022-09-02T10:36:59.700Z,1.90
2022-09-02T10:37:59.688Z,1.60
2022-09-02T10:38:59.672Z,1.40
2022-09-02T10:39:59.671Z,2.00
2022-09-02T10:40:59.787Z,2.90
2022-09-02T10:41:59.669Z,1.50
2022-09-02T10:42:59.621Z,3.70
2022-09-02T10:43:59.632Z,8.70
2022-09-02T10:44:59.614Z,1.60
2022-09-02T10:45:59.606Z,2.10
2022-09-02T10:46:59.692Z,3.80
2022-09-02T10:47:59.580Z,1.60
2022-09-02T10:48:59.570Z,1.30
2022-09-02T10:49:59.570Z,3.00
2022-09-02T10:50:59.537Z,2.50
2022-09-02T10:51:59.563Z,1.70
2022-09-02T10:52:59.525Z,1.30
2022-09-02T10:53:59.520Z,2.30
2022-09-02T10:54:59.494Z,2.20
2022-09-02T10:55:59.490Z,1.70
2022-09-02T10:56:59.510Z,2.10
2022-09-02T10:57:59.484Z,2.50
2022-09-02T10:59:59.446Z,1.10
2022-09-02T11:00:59.491Z,4.00
2022-09-02T11:01:59.443Z,1.70
2022-09-02T11:02:59.469Z,1.90
2022-09-02T11:03:59.521Z,1.30
2022-09-02T11:04:59.388Z,3.20
2022-09-02T11:05:59.382Z,2.60
2022-09-02T11:07:02.891Z,2.00
2022-09-02T11:07:59.379Z,2.60
2022-09-02T11:08:59.359Z,2.40
2022-09-02T11:09:59.341Z,1.90
2022-09-02T11:10:59.339Z,1.50
2022-09-02T11:12:00.287Z,2.40
2022-09-02T11:12:59.319Z,1.90
2022-09-02T11:13:59.308Z,1.80
2022-09-02T11:14:59.305Z,1.80
2022-09-02T11:15:59.336Z,1.70
2022-09-02T11:16:59.313Z,2.30
2022-09-02T11:17:59.261Z,1.70
2022-09-02T11:18:59.243Z,2.70
2022-09-02T11:19:59.272Z,2.80
2022-09-02T11:20:59.223Z,2.70
2022-09-02T11:21:59.243Z,2.30
2022-09-02T11:22:59.358Z,1.90
2022-09-02T11:23:59.196Z,1.50
2022-09-02T11:24:59.183Z,2.20
2022-09-02T11:25:59.189Z,2.30
2022-09-02T11:26:59.180Z,1.50
2022-09-02T11:27:59.162Z,2.20
2022-09-02T11:28:59.148Z,1.20
2022-09-02T11:29:59.158Z,1.10
2022-09-02T11:30:59.136Z,1.90
2022-09-02T11:31:59.135Z,2.60
2022-09-02T11:32:59.096Z,1.50
2022-09-02T11:33:59.158Z,1.10
2022-09-02T11:34:59.165Z,1.50
2022-09-02T11:35:59.119Z,2.80
2022-09-02T11:36:59.093Z,1.20
2022-09-02T11:37:59.095Z,1.40
2022-09-02T11:38:59.046Z,2.70
2022-09-02T11:40:11.610Z,1.60
2022-09-02T11:41:59.101Z,3.40
2022-09-02T11:42:59.033Z,2.00
2022-09-02T11:43:58.995Z,1.70
2022-09-02T11:44:58.974Z,1.90
2022-09-02T11:45:59.055Z,1.30
2022-09-02T11:46:59.115Z,1.10
2022-09-02T11:47:58.963Z,2.20
2022-09-02T11:48:58.940Z,1.70
2022-09-02T11:49:58.948Z,2.70
2022-09-02T11:50:58.913Z,2.50
2022-09-02T11:51:59.003Z,2.20
2022-09-02T11:52:58.922Z,2.10
2022-09-02T11:53:59.030Z,2.30
2022-09-02T11:55:02.516Z,2.80
2022-09-02T11:55:58.926Z,1.90
2022-09-02T11:56:58.880Z,1.90
2022-09-02T11:57:58.855Z,1.60
2022-09-02T11:58:58.830Z,1.80
2022-09-02T11:59:58.822Z,1.50
2022-09-02T12:00:58.838Z,1.40
2022-09-02T12:01:58.822Z,1.40
2022-09-02T12:02:58.787Z,2.00
2022-09-02T12:04:48.547Z,1.60
2022-09-02T12:05:04.277Z,1.20
2022-09-02T12:05:58.979Z,1.60
2022-09-02T12:06:58.961Z,1.00
2022-09-02T12:07:58.758Z,1.20
2022-09-02T12:08:58.956Z,1.50
2022-09-02T12:09:58.729Z,2.20
2022-09-02T12:10:58.772Z,1.50
2022-09-02T12:11:58.719Z,1.80
2022-09-02T12:12:58.694Z,1.10
2022-09-02T12:14:00.021Z,2.00
2022-09-02T12:14:58.663Z,2.00
2022-09-02T12:15:58.717Z,1.80
2022-09-02T12:16:58.692Z,1.00
2022-09-02T12:17:58.649Z,1.20
2022-09-02T12:18:58.630Z,1.20
2022-09-02T12:19:58.616Z,1.90
2022-09-02T12:20:58.605Z,1.20
2022-09-02T12:21:58.610Z,2.40
2022-09-02T12:22:58.587Z,2.40
2022-09-02T12:23:58.579Z,1.80
2022-09-02T12:24:58.600Z,2.10
2022-09-02T12:25:58.553Z,2.40
2022-09-02T12:26:58.563Z,2.10
2022-09-02T12:27:58.540Z,1.40
2022-09-02T12:28:58.513Z,1.40
2022-09-02T12:29:58.506Z,2.00
2022-09-02T12:30:58.556Z,2.20
2022-09-02T12:31:58.519Z,2.40
2022-09-02T12:32:58.483Z,2.10
2022-09-02T12:33:58.463Z,1.70
2022-09-02T12:34:58.465Z,1.40
2022-09-02T12:35:58.527Z,1.60
2022-09-02T12:36:58.465Z,1.90
2022-09-02T12:37:58.439Z,1.60
2022-09-02T12:38:58.412Z,4.20
2022-09-02T12:39:58.415Z,2.10
2022-09-02T12:40:59.012Z,1.50
2022-09-02T12:41:58.420Z,2.10
2022-09-02T12:42:58.380Z,1.40
2022-09-02T12:43:58.362Z,1.50
2022-09-02T12:44:58.348Z,2.70
2022-09-02T12:45:58.410Z,1.30
2022-09-02T12:46:58.408Z,2.70
2022-09-02T12:47:58.336Z,2.00
2022-09-02T12:48:58.325Z,2.00
2022-09-02T12:49:58.304Z,3.00
2022-09-02T12:50:58.288Z,1.50
2022-09-02T12:51:58.303Z,2.30
2022-09-02T12:52:58.294Z,2.10
2022-09-02T12:53:58.373Z,2.70
2022-09-02T12:54:58.682Z,1.70
2022-09-02T12:55:58.246Z,3.10
2022-09-02T12:56:58.255Z,2.10
2022-09-02T12:57:58.223Z,1.60
2022-09-02T12:59:02.768Z,1.50
2022-09-02T12:59:58.231Z,1.90
2022-09-02T13:00:58.200Z,2.90
2022-09-02T13:02:58.423Z,3.50
2022-09-02T13:03:58.163Z,2.00
2022-09-02T13:04:58.142Z,3.00
2022-09-02T13:05:58.135Z,1.80
2022-09-02T13:06:58.173Z,2.90
2022-09-02T13:07:59.771Z,2.40
2022-09-02T13:08:58.115Z,2.00
2022-09-02T13:09:58.108Z,1.70
2022-09-02T13:10:58.090Z,1.80
2022-09-02T13:11:58.134Z,1.90
2022-09-02T13:12:58.091Z,1.90
2022-09-02T13:13:58.083Z,2.20
2022-09-02T13:14:58.165Z,1.60
2022-09-02T13:15:58.131Z,2.90
2022-09-02T13:17:05.133Z,1.50
2022-09-02T13:17:58.145Z,2.40
2022-09-02T13:18:58.027Z,2.10
2022-09-02T13:19:58.041Z,2.40
2022-09-02T13:20:58.007Z,1.60
2022-09-02T13:21:58.009Z,1.40
2022-09-02T13:22:58.037Z,1.30
2022-09-02T13:23:58.004Z,1.10
2022-09-02T13:24:58.003Z,2.40